Time;durP1;ratioP1;P1;durP2;ratioP2;P2;SDS_P1;SDS_P2;PMS_P1;PMS_P2;Temp;Humidity;BMP_temperature;BMP_pressure;BME280_temperature;BME280_humidity;BME280_pressure;Samples;Min_cycle;Max_cycle;Signal;HPM_P1;HPM_P2
2023/10/13 00:01:34;;;;;;;22.80;8.65;;;;;;;13.71;61.69;95760.22;4996791;28;20425;-74
2023/10/13 00:04:01;;;;;;;26.13;9.20;;;;;;;13.35;61.60;95707.16;5002295;28;20053;-74
2023/10/13 00:06:27;;;;;;;20.83;8.68;;;;;;;13.62;61.72;95753.88;5011234;28;20551;-75
2023/10/13 00:08:52;;;;;;;23.55;9.27;;;;;;;13.32;61.46;95721.06;5011070;28;20049;-74
2023/10/13 00:11:19;;;;;;;22.48;8.98;;;;;;;13.40;62.15;95738.31;5012525;28;20127;-74
2023/10/13 00:13:50;;;;;;;25.88;8.65;;;;;;;13.51;62.05;95750.47;5013266;28;20440;-74
2023/10/13 00:16:22;;;;;;;;;;;;;;;13.20;63.06;95749.88;5011621;28;20037;-74
2023/10/13 00:18:48;;;;;;;;;;;;;;;13.21;63.43;95740.03;5013839;28;20393;-74
2023/10/13 00:21:19;;;;;;;19.92;8.60;;;;;;;13.24;63.27;95745.63;5012073;28;19976;-74
2023/10/13 00:23:52;;;;;;;21.55;9.20;;;;;;;12.91;62.88;95666.44;5027737;28;20125;-74
2023/10/13 00:26:29;;;;;;;20.08;8.63;;;;;;;13.42;62.64;95736.19;5013088;28;20041;-74
2023/10/13 00:29:08;;;;;;;17.00;8.93;;;;;;;13.44;62.85;95742.81;5013119;28;20116;-74
2023/10/13 00:31:38;;;;;;;14.88;8.63;;;;;;;13.32;62.38;95706.94;5006454;28;20044;-74
2023/10/13 00:39:36;;;;;;;22.67;8.20;;;;;;;13.23;62.24;95700.59;5012142;28;20061;-74
2023/10/13 00:42:06;;;;;;;16.35;8.50;;;;;;;13.57;61.96;95752.06;5010223;28;20026;-75
2023/10/13 00:44:41;;;;;;;29.63;10.10;;;;;;;13.49;62.14;95752.66;5008218;28;20044;-75
2023/10/13 00:47:09;;;;;;;21.73;9.20;;;;;;;13.30;62.49;95728.53;5012725;28;20038;-74
2023/10/13 00:49:39;;;;;;;25.20;7.95;;;;;;;13.25;62.65;95752.53;5014412;28;20034;-74
2023/10/13 00:52:10;;;;;;;21.05;8.70;;;;;;;13.15;63.17;95739.28;5015239;28;20053;-74
2023/10/13 00:54:37;;;;;;;19.58;9.07;;;;;;;12.88;63.23;95698.94;5016101;28;20042;-74
2023/10/13 00:57:26;;;;;;;16.40;8.88;;;;;;;13.18;63.19;95737.94;5030965;28;20049;-75
2023/10/13 00:59:53;;;;;;;22.23;9.13;;;;;;;13.09;62.86;95713.72;5014820;28;20033;-74
2023/10/13 01:05:04;;;;;;;18.13;8.85;;;;;;;13.22;63.27;95761.06;5016273;28;20092;-74
2023/10/13 01:07:30;;;;;;;21.05;8.95;;;;;;;13.00;63.78;95744.66;5015003;28;20488;-75
2023/10/13 01:09:55;;;;;;;18.95;9.20;;;;;;;12.99;63.43;95737.75;5016557;28;20045;-74
2023/10/13 01:12:24;;;;;;;20.52;9.25;;;;;;;13.11;63.64;95760.31;5014725;28;20069;-74
2023/10/13 01:14:49;;;;;;;20.55;9.55;;;;;;;12.80;63.32;95702.19;5016139;28;20041;-74
2023/10/13 01:17:15;;;;;;;19.42;9.13;;;;;;;12.93;63.14;95712.22;5014505;28;20037;-74
2023/10/13 01:19:42;;;;;;;19.58;8.88;;;;;;;12.65;63.70;95697.72;5015335;28;20050;-74
2023/10/13 01:22:09;;;;;;;27.60;9.32;;;;;;;13.04;63.37;95735.88;5014970;28;20045;-75
2023/10/13 01:24:35;;;;;;;22.55;8.55;;;;;;;12.95;63.14;95726.06;5015945;28;20046;-74
2023/10/13 01:27:17;;;;;;;22.38;9.18;;;;;;;12.93;63.49;95746.81;5016244;28;20132;-74
2023/10/13 01:29:55;;;;;;;29.60;8.95;;;;;;;12.95;63.32;95742.03;5016435;28;20034;-75
2023/10/13 01:32:22;;;;;;;21.08;8.50;;;;;;;12.91;63.40;95717.81;5020618;28;20408;-75
2023/10/13 01:34:49;;;;;;;19.42;8.90;;;;;;;12.64;64.05;95725.41;5015771;28;20393;-75
2023/10/13 01:37:19;;;;;;;23.10;10.93;;;;;;;12.93;63.82;95754.81;5011305;28;20045;-75
2023/10/13 01:39:47;;;;;;;19.98;9.20;;;;;;;12.89;63.73;95753.78;5010907;28;20140;-75
2023/10/13 01:42:19;;;;;;;15.15;8.45;;;;;;;12.93;63.47;95762.78;5011233;28;20049;-75
2023/10/13 01:44:45;;;;;;;26.13;9.23;;;;;;;12.70;63.48;95738.41;5012422;28;20471;-75
2023/10/13 01:47:12;;;;;;;21.70;8.52;;;;;;;12.65;63.99;95740.31;5010805;28;20107;-75
2023/10/13 01:49:58;;;;;;;18.05;8.88;;;;;;;12.64;64.12;95752.81;5027805;28;20050;-75
2023/10/13 01:52:24;;;;;;;25.27;9.43;;;;;;;12.81;63.85;95765.78;4993582;28;20050;-76
2023/10/13 01:54:50;;;;;;;25.33;10.38;;;;;;;12.84;63.72;95757.25;5011065;28;20520;-75
2023/10/13 01:57:17;;;;;;;29.20;9.43;;;;;;;12.66;63.83;95736.59;5012461;28;20168;-75
2023/10/13 01:59:49;;;;;;;15.43;8.23;;;;;;;12.81;64.14;95757.81;5027361;28;20038;-76
2023/10/13 02:02:26;;;;;;;23.13;9.68;;;;;;;12.84;64.15;95759.91;5012280;28;20509;-75
2023/10/13 02:04:58;;;;;;;19.58;8.95;;;;;;;12.55;64.09;95719.84;5012098;28;20053;-75
2023/10/13 02:07:34;;;;;;;20.05;9.45;;;;;;;12.69;64.13;95741.34;5026931;28;20401;-75
2023/10/13 02:10:04;;;;;;;17.50;8.68;;;;;;;12.83;63.99;95752.19;5010611;28;20517;-75
2023/10/13 02:12:42;;;;;;;18.40;8.65;;;;;;;12.59;63.55;95714.75;5010563;28;20044;-75
2023/10/13 02:15:26;;;;;;;20.98;9.60;;;;;;;12.82;64.00;95762.03;5011626;28;20053;-75
2023/10/13 02:17:54;;;;;;;21.55;8.85;;;;;;;12.75;64.00;95741.03;5013865;28;20496;-75
2023/10/13 02:20:26;;;;;;;23.65;8.75;;;;;;;12.60;64.60;95750.94;5032354;28;20501;-75
2023/10/13 02:22:55;;;;;;;16.42;8.43;;;;;;;12.46;64.68;95724.13;5001098;28;20049;-75
2023/10/13 02:25:42;;;;;;;16.77;8.95;;;;;;;12.63;64.46;95751.22;5010109;28;20050;-75
2023/10/13 02:28:13;;;;;;;20.15;9.23;;;;;;;12.42;64.42;95736.41;5011852;28;20046;-75
2023/10/13 02:30:48;;;;;;;15.48;9.18;;;;;;;12.43;64.91;95737.19;4998784;28;20429;-75
2023/10/13 02:33:14;;;;;;;22.77;8.93;;;;;;;12.17;65.15;95715.19;5008289;28;20038;-75
2023/10/13 02:35:53;;;;;;;19.20;8.48;;;;;;;12.44;64.63;95744.09;5010153;28;20042;-75
2023/10/13 02:38:27;;;;;;;21.88;9.32;;;;;;;12.12;64.76;95700.06;5010133;28;20061;-75
2023/10/13 02:40:54;;;;;;;17.40;8.90;;;;;;;12.06;65.65;95719.72;5010084;28;20041;-77
2023/10/13 02:43:21;;;;;;;20.90;9.45;;;;;;;12.42;65.11;95755.03;5013584;28;20120;-78
2023/10/13 02:45:58;;;;;;;19.05;8.75;;;;;;;12.01;64.76;95693.16;5011704;28;20056;-78
2023/10/13 02:48:25;;;;;;;21.67;9.35;;;;;;;12.12;64.99;95725.84;5011838;28;20050;-78
2023/10/13 02:50:56;;;;;;;17.70;8.95;;;;;;;12.36;64.71;95748.91;5012469;28;20199;-78
2023/10/13 02:53:22;;;;;;;17.02;10.00;;;;;;;12.42;64.84;95770.19;5011967;28;20042;-78
2023/10/13 02:55:52;;;;;;;21.58;9.57;;;;;;;12.28;64.91;95738.03;5011712;28;20069;-78
2023/10/13 02:58:18;;;;;;;25.52;9.13;;;;;;;12.31;64.47;95738.28;5012874;28;20415;-78
2023/10/13 03:00:45;;;;;;;13.55;8.45;;;;;;;11.89;64.74;95680.16;5014719;28;20046;-78
2023/10/13 03:03:14;;;;;;;20.48;9.45;;;;;;;12.47;64.62;95770.94;5030237;28;20141;-78
2023/10/13 03:05:40;;;;;;;35.35;11.10;;;;;;;12.48;64.53;95780.53;5012976;28;20045;-78
2023/10/13 03:08:06;;;;;;;21.38;9.57;;;;;;;11.88;64.40;95677.78;5013018;28;20045;-78
2023/10/13 03:10:32;;;;;;;26.67;10.02;;;;;;;12.09;64.49;95724.50;5010893;28;20042;-78
2023/10/13 03:12:59;;;;;;;24.65;9.10;;;;;;;12.48;64.39;95780.53;5010363;28;20042;-78
2023/10/13 03:15:30;;;;;;;20.15;9.82;;;;;;;12.35;64.84;95775.78;5011011;28;20053;-78
2023/10/13 03:17:58;;;;;;;20.35;9.07;;;;;;;12.12;64.65;95747.91;5012785;28;20045;-78
2023/10/13 03:20:31;;;;;;;21.25;9.77;;;;;;;12.17;64.56;95763.84;5011619;28;20454;-78
2023/10/13 03:22:57;;;;;;;23.25;10.10;;;;;;;12.18;64.41;95759.31;5012665;28;20042;-78
2023/10/13 03:25:29;;;;;;;20.73;10.10;;;;;;;12.20;64.24;95744.72;5012742;28;20052;-78
2023/10/13 03:30:34;;;;;;;22.13;9.23;;;;;;;12.28;64.63;95775.28;5013385;28;20029;-78
2023/10/13 03:33:01;;;;;;;30.30;9.88;;;;;;;12.27;64.67;95785.09;5027386;28;20034;-78
2023/10/13 03:35:37;;;;;;;20.02;8.30;;;;;;;11.87;64.75;95739.97;5012886;28;20057;-78
2023/10/13 03:38:04;;;;;;;22.67;10.13;;;;;;;11.93;64.96;95749.53;5009810;28;20091;-78
2023/10/13 03:45:26;;;;;;;20.83;9.68;;;;;;;11.95;65.32;95763.34;5013069;28;20073;-78
2023/10/13 03:47:52;;;;;;;25.80;10.18;;;;;;;11.86;65.47;95754.31;5013391;28;20042;-78
2023/10/13 03:50:29;;;;;;;20.50;9.48;;;;;;;11.86;65.69;95757.75;5027250;28;20459;-78
2023/10/13 03:52:59;;;;;;;23.33;10.15;;;;;;;11.86;65.61;95763.09;5000268;28;20074;-75
2023/10/13 03:55:26;;;;;;;27.25;10.77;;;;;;;11.49;65.02;95691.59;5029951;28;20050;-75
2023/10/13 03:57:53;;;;;;;21.38;9.90;;;;;;;11.89;65.02;95727.22;5014409;28;20042;-75
2023/10/13 04:00:30;;;;;;;21.98;9.98;;;;;;;11.66;64.95;95693.19;5019761;28;20130;-75
2023/10/13 04:05:38;;;;;;;21.73;10.45;;;;;;;11.73;65.03;95696.38;5010749;28;20050;-75
2023/10/13 04:19:07;;;;;;;22.58;10.60;;;;;;;11.96;64.89;95731.19;5010338;28;20191;-75
2023/10/13 04:24:22;;;;;;;26.85;10.77;;;;;;;12.20;64.71;95746.56;5004590;28;20046;-74
2023/10/13 04:30:01;;;;;;;21.83;10.43;;;;;;;12.11;65.04;95756.94;4973272;28;20064;-76
2023/10/13 04:32:29;;;;;;;30.05;12.43;;;;;;;12.13;64.64;95762.78;4983521;28;20042;-78
2023/10/13 04:35:10;;;;;;;34.67;14.07;;;;;;;11.99;64.72;95762.53;5000011;28;20148;-78
2023/10/13 04:40:14;;;;;;;37.58;15.27;;;;;;;11.96;64.51;95762.28;4953860;28;20058;-77
2023/10/13 04:43:04;;;;;;;43.33;15.52;;;;;;;11.16;64.04;95626.53;4965896;28;20045;-77
2023/10/13 04:50:45;;;;;;;34.83;14.80;;;;;;;12.18;63.53;95783.25;4962204;28;20354;-78
2023/10/13 04:53:30;;;;;;;37.15;14.60;;;;;;;12.04;63.94;95766.25;4961902;28;20156;-79
2023/10/13 05:45:07;;;;;;;29.27;12.10;;;;;;;12.33;64.09;95829.25;4982036;28;20084;-76
2023/10/13 05:47:46;;;;;;;28.35;12.45;;;;;;;12.41;63.71;95827.09;4988186;28;20141;-76
2023/10/13 06:31:07;;;;;;;38.10;14.32;;;;;;;13.28;61.75;95865.72;5000351;28;20100;-76
2023/10/13 06:33:34;;;;;;;32.38;14.23;;;;;;;13.28;61.54;95861.19;5002356;28;20056;-77
2023/10/13 06:36:09;;;;;;;36.45;13.68;;;;;;;13.36;61.21;95854.50;4998575;28;20038;-76
2023/10/13 06:38:37;;;;;;;49.75;15.60;;;;;;;13.43;61.18;95871.75;4971939;28;21632;-76
2023/10/13 06:41:07;;;;;;;39.63;16.75;;;;;;;13.02;61.14;95795.78;4969451;28;20109;-76
2023/10/13 06:43:39;;;;;;;40.55;15.30;;;;;;;13.29;61.00;95835.34;5013717;28;20049;-77
2023/10/13 06:46:14;;;;;;;55.40;15.90;;;;;;;13.18;61.50;95836.47;4994712;28;20045;-77
2023/10/13 06:48:41;;;;;;;54.30;16.60;;;;;;;13.30;61.10;95824.41;4993223;28;20042;-76
2023/10/13 06:51:22;;;;;;;40.28;16.83;;;;;;;13.61;60.96;95866.88;4995027;28;20052;-76
2023/10/13 06:53:48;;;;;;;;;;;;;;;13.51;61.10;95863.19;4989248;28;20057;-76
2023/10/13 06:56:27;;;;;;;45.05;16.48;;;;;;;13.64;60.92;95867.16;4964165;28;20013;-75
2023/10/13 06:58:59;;;;;;;38.00;17.13;;;;;;;13.26;60.67;95809.28;4993169;28;20137;-74
2023/10/13 07:01:27;;;;;;;36.88;17.10;;;;;;;13.75;60.36;95858.00;4996326;28;20157;-75
2023/10/13 07:03:53;;;;;;;47.08;19.35;;;;;;;13.57;60.27;95813.34;4994028;28;20056;-75
2023/10/13 07:06:22;;;;;;;46.22;18.02;;;;;;;13.78;59.89;95816.69;4999371;28;20041;-74
2023/10/13 07:08:55;;;;;;;49.88;18.50;;;;;;;14.02;59.72;95836.22;4991359;28;20092;-75
2023/10/13 07:11:34;;;;;;;51.70;18.50;;;;;;;14.08;59.35;95844.97;4971438;28;20061;-76
2023/10/13 07:14:10;;;;;;;42.88;18.75;;;;;;;13.77;59.78;95793.75;4949586;28;20050;-75
2023/10/13 07:16:46;;;;;;;47.85;20.70;;;;;;;13.60;60.30;95804.78;4960380;28;20046;-77
2023/10/13 07:19:16;;;;;;;44.22;19.65;;;;;;;13.75;60.33;95817.22;4962562;28;20042;-74
2023/10/13 07:21:45;;;;;;;47.67;18.83;;;;;;;13.96;60.26;95850.66;4966528;28;20233;-75
2023/10/13 07:24:13;;;;;;;39.97;19.38;;;;;;;13.94;60.56;95858.16;4955481;28;20046;-75
2023/10/13 07:26:42;;;;;;;48.85;17.75;;;;;;;13.77;60.25;95809.75;4960697;28;20034;-76
2023/10/13 07:29:11;;;;;;;38.58;18.65;;;;;;;13.99;60.08;95839.44;4983953;28;20080;-76
2023/10/13 07:31:42;;;;;;;42.13;16.23;;;;;;;14.08;59.74;95824.44;4991583;28;20046;-75
2023/10/13 07:34:24;;;;;;;44.05;17.48;;;;;;;14.24;59.55;95849.13;4992750;28;20447;-76
2023/10/13 07:36:51;;;;;;;42.72;17.80;;;;;;;14.08;59.45;95823.63;4998972;28;20045;-75
2023/10/13 07:39:21;;;;;;;42.10;17.83;;;;;;;14.11;59.40;95826.53;5004393;28;20049;-76
2023/10/13 07:42:06;;;;;;;38.58;16.65;;;;;;;14.30;58.99;95830.13;4999097;28;20183;-76
2023/10/13 07:44:33;;;;;;;38.30;17.17;;;;;;;14.44;58.91;95829.47;5005710;28;20041;-75
2023/10/13 07:47:02;;;;;;;45.92;17.42;;;;;;;14.53;58.57;95819.78;5005489;28;20118;-77
2023/10/13 07:49:37;;;;;;;58.03;18.80;;;;;;;14.51;58.56;95803.25;5006217;28;20093;-77
2023/10/13 07:52:35;;;;;;;34.00;16.35;;;;;;;14.77;57.99;95823.28;4993615;28;20201;-76
2023/10/13 07:55:13;;;;;;;36.42;17.40;;;;;;;14.77;57.84;95820.59;5007383;28;20615;-77
2023/10/13 08:03:17;;;;;;;48.28;17.90;;;;;;;14.86;57.06;95802.88;5006667;28;20037;-76
2023/10/13 08:06:06;;;;;;;34.40;16.38;;;;;;;15.23;56.62;95823.53;5001023;28;20109;-75
2023/10/13 08:08:39;;;;;;;38.25;17.95;;;;;;;15.07;56.55;95790.88;4993025;28;20116;-76
2023/10/13 08:11:24;;;;;;;34.90;17.70;;;;;;;15.28;56.55;95817.31;5007257;28;20101;-75
2023/10/13 08:16:59;;;;;;;34.60;18.27;;;;;;;15.52;55.83;95822.63;5007511;28;20046;-76
2023/10/13 08:19:27;;;;;;;42.08;17.35;;;;;;;15.38;55.71;95788.59;5000363;28;20046;-76
2023/10/13 08:22:23;;;;;;;56.47;19.90;;;;;;;15.53;55.72;95797.47;4982924;28;20695;-74
2023/10/13 08:37:29;;;;;;;44.28;17.02;;;;;;;16.02;53.91;95797.81;4997692;28;20056;-75
2023/10/13 08:43:08;;;;;;;42.75;17.65;;;;;;;16.51;53.44;95821.34;4987810;28;20049;-75
2023/10/13 08:48:07;;;;;;;51.40;19.25;;;;;;;16.73;52.64;95812.66;4986648;28;20093;-76
2023/10/13 08:53:31;;;;;;;41.05;18.45;;;;;;;16.82;52.43;95818.91;4988780;28;20290;-76
2023/10/13 08:56:31;;;;;;;42.53;17.92;;;;;;;16.84;52.44;95824.00;4995021;28;20069;-76
2023/10/13 08:59:05;;;;;;;50.00;19.25;;;;;;;16.74;52.47;95776.75;4993682;28;20042;-76
2023/10/13 09:01:48;;;;;;;38.42;17.45;;;;;;;16.94;52.43;95819.22;5004506;28;20041;-77
2023/10/13 09:12:19;;;;;;;37.60;19.17;;;;;;;17.32;51.31;95814.41;5001688;28;20592;-77
2023/10/13 09:14:58;;;;;;;42.58;18.83;;;;;;;17.31;51.24;95802.13;4995294;28;20038;-77
2023/10/13 09:17:35;;;;;;;56.45;21.48;;;;;;;17.38;50.80;95817.81;4997358;28;20034;-77
2023/10/13 09:25:37;;;;;;;45.38;19.45;;;;;;;17.67;50.37;95799.50;4997616;28;20049;-77
2023/10/13 09:28:10;;;;;;;51.90;20.70;;;;;;;17.85;50.08;95788.91;4991799;28;20038;-76
2023/10/13 09:30:44;;;;;;;48.47;19.58;;;;;;;17.80;49.47;95746.88;4996951;28;20053;-77
2023/10/13 09:33:15;;;;;;;37.80;17.25;;;;;;;18.22;49.10;95785.06;5002226;28;20369;-78
2023/10/13 09:35:48;;;;;;;54.87;19.77;;;;;;;17.80;48.89;95708.53;4990220;28;20081;-77
2023/10/13 09:38:15;;;;;;;48.13;19.95;;;;;;;18.47;48.53;95789.75;4986513;28;20289;-76
2023/10/13 09:40:49;;;;;;;47.78;18.63;;;;;;;18.46;48.48;95750.59;4999345;28;20139;-75
2023/10/13 09:43:18;;;;;;;36.67;17.95;;;;;;;18.86;47.62;95776.38;4999345;28;20446;-74
2023/10/13 09:46:02;;;;;;;39.15;15.63;;;;;;;18.86;47.00;95751.38;5005441;28;20463;-75
2023/10/13 09:48:45;;;;;;;32.83;15.57;;;;;;;19.26;46.43;95770.94;4998690;28;20052;-75
2023/10/13 09:51:19;;;;;;;53.15;14.75;;;;;;;19.48;45.87;95778.13;5003679;28;20046;-75
2023/10/13 09:54:20;;;;;;;47.78;13.23;;;;;;;19.65;45.32;95770.88;4985254;28;20117;-77
2023/10/13 09:57:03;;;;;;;26.90;13.30;;;;;;;19.64;45.14;95737.00;4995984;28;20069;-77
2023/10/13 09:59:35;;;;;;;39.45;13.85;;;;;;;19.78;44.77;95726.06;5006799;28;20365;-78
2023/10/13 10:02:18;;;;;;;42.10;14.68;;;;;;;20.03;43.75;95684.84;5005763;28;20097;-76
2023/10/13 10:04:55;;;;;;;34.42;14.07;;;;;;;20.84;42.29;95661.53;5001352;28;20034;-77
2023/10/13 10:07:28;;;;;;;41.63;14.05;;;;;;;22.19;40.47;95749.09;4996171;28;20048;-77
2023/10/13 10:10:01;;;;;;;36.00;12.50;;;;;;;22.60;38.51;95685.19;4999439;28;20508;-78
2023/10/13 10:12:47;;;;;;;27.10;12.68;;;;;;;23.68;37.30;95743.06;4997213;28;20053;-76
2023/10/13 10:15:43;;;;;;;27.90;12.82;;;;;;;24.40;35.72;95735.81;4995014;28;20100;-78
2023/10/13 10:18:24;;;;;;;31.45;11.70;;;;;;;24.82;34.75;95733.34;5000481;28;20053;-77
2023/10/13 10:20:52;;;;;;;28.95;12.68;;;;;;;25.35;34.08;95720.25;5006232;28;20115;-79
2023/10/13 10:23:26;;;;;;;30.55;10.15;;;;;;;25.54;32.52;95657.84;5000950;28;20077;-75
2023/10/13 10:26:13;;;;;;;31.27;9.60;;;;;;;26.23;31.75;95707.72;5005865;28;20372;-76
2023/10/13 10:28:43;;;;;;;21.98;9.07;;;;;;;26.86;30.53;95729.03;5000804;28;20124;-76
2023/10/13 10:31:12;;;;;;;22.65;8.35;;;;;;;27.20;30.17;95717.16;4983669;28;20415;-76
2023/10/13 10:33:39;;;;;;;23.20;9.10;;;;;;;27.18;29.40;95697.69;4996974;28;20097;-77
2023/10/13 10:36:05;;;;;;;23.23;8.05;;;;;;;27.36;29.17;95697.16;4999449;28;20764;-78
2023/10/13 10:38:37;;;;;;;18.60;7.25;;;;;;;27.37;28.54;95666.03;4999550;28;20038;-75
2023/10/13 10:41:05;;;;;;;11.38;6.32;;;;;;;27.39;27.83;95661.78;4992878;28;20053;-79
2023/10/13 10:43:46;;;;;;;13.25;6.63;;;;;;;28.04;27.24;95714.00;5013090;28;20073;-78
2023/10/13 10:46:15;;;;;;;15.90;6.30;;;;;;;28.10;27.09;95686.41;4998848;28;20050;-78
2023/10/13 10:48:44;;;;;;;21.00;6.03;;;;;;;27.92;27.23;95694.41;5005426;28;20057;-78
2023/10/13 10:51:57;;;;;;;24.05;6.32;;;;;;;27.23;27.75;95715.66;5002406;28;20595;-79
2023/10/13 10:54:12;;;;;;;16.98;5.82;;;;;;;27.38;27.60;95706.53;4994729;28;20141;-78
2023/10/13 10:56:38;;;;;;;19.05;6.10;;;;;;;27.27;27.45;95687.31;5001661;28;20089;-78
2023/10/13 10:59:08;;;;;;;18.23;5.63;;;;;;;27.48;27.33;95715.97;5004420;28;20133;-78
2023/10/13 11:01:46;;;;;;;19.08;5.75;;;;;;;27.42;27.96;95693.72;4992071;28;20460;-78
2023/10/13 11:06:54;;;;;;;17.08;6.68;;;;;;;26.53;29.24;95699.75;5001432;28;20528;-78
2023/10/13 11:11:53;;;;;;;22.50;6.68;;;;;;;26.47;28.78;95674.75;4992293;28;20361;-78
2023/10/13 11:14:29;;;;;;;13.70;6.07;;;;;;;26.55;29.07;95672.19;4994137;28;20141;-77
2023/10/13 11:19:51;;;;;;;12.77;5.80;;;;;;;26.83;28.66;95681.56;4987812;28;20046;-78
2023/10/13 11:22:32;;;;;;;14.48;5.60;;;;;;;26.98;28.28;95682.63;4995983;28;20524;-79
2023/10/13 11:25:09;;;;;;;14.38;5.30;;;;;;;27.22;27.91;95678.69;5002081;28;20050;-77
2023/10/13 11:30:14;;;;;;;14.65;4.82;;;;;;;27.28;27.52;95639.88;4997361;28;20042;-78
2023/10/13 11:32:43;;;;;;;9.95;4.75;;;;;;;27.78;26.72;95656.06;4998113;28;20042;-78
2023/10/13 11:35:20;;;;;;;12.23;3.53;;;;;;;28.04;25.53;95648.56;5002458;28;20448;-78
2023/10/13 11:37:56;;;;;;;14.02;4.28;;;;;;;28.40;25.32;95662.56;5020978;28;20101;-78
2023/10/13 11:40:43;;;;;;;16.80;4.03;;;;;;;28.12;25.50;95652.16;4997682;28;20365;-78
2023/10/13 11:43:21;;;;;;;16.65;4.55;;;;;;;28.44;25.78;95657.16;4994218;28;20038;-77
2023/10/13 11:46:00;;;;;;;11.32;3.47;;;;;;;28.63;24.73;95656.94;5000408;28;20038;-78
2023/10/13 11:48:39;;;;;;;7.28;3.20;;;;;;;28.59;24.82;95618.72;4991141;28;20041;-77
2023/10/13 11:51:23;;;;;;;13.73;3.08;;;;;;;28.79;25.09;95602.88;4999233;28;20033;-75
2023/10/13 11:53:53;;;;;;;11.13;3.63;;;;;;;28.93;25.56;95654.06;5000094;28;20120;-76
2023/10/13 11:56:21;;;;;;;8.02;3.63;;;;;;;28.91;25.91;95638.09;4995765;28;20144;-75
2023/10/13 11:58:48;;;;;;;10.10;3.72;;;;;;;29.07;25.37;95646.75;4996317;28;20133;-73
2023/10/13 12:11:46;;;;;;;9.57;3.13;;;;;;;30.08;23.21;95614.03;4979290;28;20147;-78
2023/10/13 12:14:27;;;;;;;9.32;3.70;;;;;;;30.26;23.19;95622.25;4987277;28;20057;-76
2023/10/13 12:16:53;;;;;;;7.88;2.95;;;;;;;30.21;23.33;95596.06;4989122;28;20528;-75
2023/10/13 12:19:26;;;;;;;12.32;2.88;;;;;;;29.57;23.04;95545.94;4988339;28;20042;-76
2023/10/13 12:21:56;;;;;;;11.00;3.58;;;;;;;30.18;23.24;95617.94;4976289;28;20386;-76
2023/10/13 12:27:18;;;;;;;10.60;3.65;;;;;;;29.66;23.23;95613.91;4996028;28;20049;-76
2023/10/13 12:29:47;;;;;;;10.25;3.50;;;;;;;29.89;23.36;95619.81;4992040;28;20537;-77
2023/10/13 12:32:14;;;;;;;10.95;3.83;;;;;;;30.01;23.38;95608.53;4999200;28;20591;-75
2023/10/13 12:37:49;;;;;;;11.52;3.75;;;;;;;29.71;23.03;95559.63;4995987;28;20140;-75
2023/10/13 12:54:06;;;;;;;13.30;4.78;;;;;;;29.70;23.31;95607.25;5000688;28;20046;-78
2023/10/13 12:56:33;;;;;;;13.80;3.83;;;;;;;29.79;23.02;95602.22;4988529;28;20495;-78
2023/10/13 12:58:58;;;;;;;13.38;3.30;;;;;;;29.75;23.07;95597.91;4997820;28;20112;-78
2023/10/13 13:01:32;;;;;;;12.48;3.67;;;;;;;29.72;23.15;95610.41;4992431;28;20049;-80
2023/10/13 13:03:58;;;;;;;9.38;3.22;;;;;;;30.04;22.82;95601.53;5005978;28;20049;-78
2023/10/13 13:06:26;;;;;;;12.52;3.40;;;;;;;29.79;23.15;95604.94;5000780;28;20053;-80
2023/10/13 13:08:55;;;;;;;9.32;3.17;;;;;;;29.42;23.02;95511.53;5001092;28;20042;-79
2023/10/13 13:11:21;;;;;;;8.70;3.63;;;;;;;29.84;22.32;95560.81;5015242;28;20053;-79
2023/10/13 13:13:47;;;;;;;8.18;3.22;;;;;;;29.99;22.50;95593.69;4997882;28;20416;-78
2023/10/13 13:16:13;;;;;;;10.68;3.50;;;;;;;30.01;22.70;95583.94;4998461;28;20334;-79
2023/10/13 13:18:39;;;;;;;14.95;4.68;;;;;;;29.44;22.71;95528.34;4997132;28;20041;-80
2023/10/13 13:21:11;;;;;;;8.77;3.65;;;;;;;29.63;23.34;95581.84;5006756;28;20057;-82
2023/10/13 13:23:39;;;;;;;9.18;3.28;;;;;;;29.33;23.07;95561.03;4998709;28;20046;-81
2023/10/13 13:26:15;;;;;;;9.25;3.42;;;;;;;29.66;22.99;95575.63;5004230;28;20484;-81
2023/10/13 13:28:40;;;;;;;10.45;3.00;;;;;;;30.13;22.42;95601.94;5001878;28;20042;-80
2023/10/13 13:31:08;;;;;;;17.02;4.03;;;;;;;30.13;22.70;95572.63;5000970;28;20044;-80
2023/10/13 13:33:38;;;;;;;12.90;3.42;;;;;;;30.24;22.64;95569.88;5001973;28;20532;-80
2023/10/13 13:36:05;;;;;;;15.05;4.05;;;;;;;30.24;22.38;95548.78;4999001;28;20048;-80
2023/10/13 13:38:32;;;;;;;12.50;3.75;;;;;;;30.20;22.42;95545.28;4998220;28;20873;-80
2023/10/13 13:40:58;;;;;;;14.73;3.65;;;;;;;30.33;22.33;95558.56;5000545;28;20045;-79
2023/10/13 13:43:50;;;;;;;15.02;4.13;;;;;;;30.47;22.62;95561.28;5000147;28;20501;-79
2023/10/13 13:46:17;;;;;;;16.25;3.85;;;;;;;30.59;22.34;95572.63;5019589;28;20049;-80
2023/10/13 13:48:43;;;;;;;20.05;3.63;;;;;;;30.77;22.68;95600.00;5004096;28;20056;-79
2023/10/13 13:51:15;;;;;;;17.27;3.92;;;;;;;30.70;22.93;95583.59;4998018;28;20046;-79
2023/10/13 13:53:48;;;;;;;20.10;4.10;;;;;;;30.30;23.37;95555.44;4993711;28;20053;-81
2023/10/13 13:56:18;;;;;;;18.98;3.72;;;;;;;30.33;24.48;95599.59;4982761;28;20376;-80
2023/10/13 13:58:50;;;;;;;18.58;4.30;;;;;;;30.33;23.72;95585.91;4980434;28;20046;-79
2023/10/13 14:01:18;;;;;;;24.45;3.90;;;;;;;30.35;23.91;95589.06;4976505;28;20053;-79
2023/10/13 14:03:45;;;;;;;20.20;4.00;;;;;;;30.35;23.64;95586.31;4986239;28;20046;-80
2023/10/13 14:06:18;;;;;;;21.35;4.40;;;;;;;30.45;24.44;95591.00;4977911;28;20356;-78
2023/10/13 14:08:48;;;;;;;19.23;4.18;;;;;;;30.18;24.15;95574.97;4981645;28;20100;-78
2023/10/13 14:12:25;;;;;;;12.10;3.58;;;;;;;30.13;24.30;95585.53;4975068;28;20081;-79
2023/10/13 14:16:51;;;;;;;16.33;4.22;;;;;;;30.18;24.35;95594.13;5000212;28;20693;-79
2023/10/13 14:19:35;;;;;;;25.67;4.38;;;;;;;30.02;24.63;95593.72;5016284;28;20117;-79
2023/10/13 14:22:06;;;;;;;15.05;3.75;;;;;;;30.02;24.46;95593.72;5000281;28;20030;-79
2023/10/13 14:24:35;;;;;;;22.30;4.45;;;;;;;29.91;24.62;95558.09;4990842;28;20129;-79
2023/10/13 14:27:13;;;;;;;14.32;3.90;;;;;;;29.63;24.82;95506.13;5001076;28;20076;-79
2023/10/13 14:29:45;;;;;;;14.10;3.88;;;;;;;30.26;24.39;95597.66;4994588;28;20069;-80
2023/10/13 14:32:13;;;;;;;14.50;3.92;;;;;;;30.13;24.58;95591.00;5002663;28;20374;-80
2023/10/13 14:34:40;;;;;;;13.98;4.55;;;;;;;30.26;24.35;95595.69;4983750;28;20074;-79
2023/10/13 14:37:06;;;;;;;15.35;4.43;;;;;;;30.07;24.77;95598.00;4986334;28;20034;-80
2023/10/13 14:39:34;;;;;;;9.70;3.75;;;;;;;30.02;24.90;95568.31;4980031;28;20538;-80
2023/10/13 14:42:02;;;;;;;8.77;3.80;;;;;;;30.03;24.76;95559.72;4997426;28;20038;-79
2023/10/13 14:44:28;;;;;;;10.75;3.97;;;;;;;30.15;24.85;95594.09;4995594;28;20530;-79
2023/10/13 14:47:11;;;;;;;12.68;4.40;;;;;;;29.83;25.10;95572.91;5003498;28;20049;-79
2023/10/13 14:49:37;;;;;;;17.75;4.30;;;;;;;29.66;25.22;95548.31;5008551;28;20123;-79
2023/10/13 14:52:02;;;;;;;10.43;4.50;;;;;;;29.40;25.71;95535.72;4998774;28;20084;-79
2023/10/13 14:54:34;;;;;;;19.00;4.50;;;;;;;29.48;25.82;95589.22;4998827;28;20042;-79
2023/10/13 14:57:02;;;;;;;19.75;4.63;;;;;;;29.08;26.06;95584.72;4993300;28;20045;-80
2023/10/13 14:59:32;;;;;;;12.73;4.75;;;;;;;28.87;26.57;95588.13;4994093;28;20070;-80
2023/10/13 15:02:01;;;;;;;12.35;4.43;;;;;;;28.76;26.54;95573.63;4994384;28;20373;-80
2023/10/13 15:04:28;;;;;;;20.58;4.55;;;;;;;28.19;26.73;95526.81;4999566;28;20046;-80
2023/10/13 15:06:55;;;;;;;14.25;4.38;;;;;;;28.26;27.17;95567.00;4997124;28;20057;-81
2023/10/13 15:09:23;;;;;;;13.05;4.18;;;;;;;28.11;27.20;95573.47;5016321;28;20045;-80
2023/10/13 15:11:52;;;;;;;20.23;4.57;;;;;;;27.82;27.52;95596.94;5003360;28;20133;-80
2023/10/13 15:14:20;;;;;;;15.55;4.22;;;;;;;27.71;27.82;95599.53;4994958;28;20547;-80
2023/10/13 15:16:46;;;;;;;17.08;4.38;;;;;;;27.44;28.21;95598.81;5001829;28;20192;-81
2023/10/13 15:19:12;;;;;;;15.75;4.47;;;;;;;27.12;28.72;95603.06;5019632;28;20393;-80
2023/10/13 15:21:39;;;;;;;14.20;4.38;;;;;;;26.82;28.82;95605.75;5001521;28;20058;-78
2023/10/13 15:24:13;;;;;;;10.60;4.07;;;;;;;26.42;28.96;95588.03;5013935;28;20137;-78
2023/10/13 15:26:45;;;;;;;19.77;3.90;;;;;;;26.13;29.72;95602.28;5015668;28;20055;-78